Time;durP1;ratioP1;P1;durP2;ratioP2;P2;SDS_P1;SDS_P2;PMS_P1;PMS_P2;Temp;Humidity;BMP_temperature;BMP_pressure;BME280_temperature;BME280_humidity;BME280_pressure;Samples;Min_cycle;Max_cycle;Signal;HPM_P1;HPM_P2
2022/08/26 00:01:38;;;;;;;3.85;1.77;;;;;;;33.89;29.35;98061.09;4987756;28;20045;-79
2022/08/26 00:04:04;;;;;;;6.10;1.75;;;;;;;33.77;29.24;98065.13;4984234;28;20045;-79
2022/08/26 00:06:32;;;;;;;5.10;1.88;;;;;;;33.90;28.99;98068.34;4977873;28;20027;-79
2022/08/26 00:08:58;;;;;;;3.53;1.75;;;;;;;34.09;28.30;98061.06;4981687;28;20070;-79
2022/08/26 00:11:24;;;;;;;4.63;1.67;;;;;;;34.07;28.69;98058.72;4985462;28;20038;-79
2022/08/26 00:13:51;;;;;;;5.50;1.95;;;;;;;34.24;28.81;98064.56;4978637;28;20027;-79
2022/08/26 00:16:17;;;;;;;3.65;1.80;;;;;;;34.33;28.73;98070.09;4982383;28;20057;-79
2022/08/26 00:18:43;;;;;;;5.93;2.63;;;;;;;34.20;29.34;98060.38;4980267;28;20487;-79
2022/08/26 00:21:09;;;;;;;4.22;2.38;;;;;;;33.84;29.26;98061.81;4993694;28;20085;-79
2022/08/26 00:23:36;;;;;;;5.35;1.90;;;;;;;33.77;29.42;98057.34;5001541;28;20037;-79
2022/08/26 00:26:04;;;;;;;2.65;1.90;;;;;;;33.63;29.90;98060.28;5001040;28;20482;-79
2022/08/26 00:28:30;;;;;;;3.22;1.77;;;;;;;33.80;29.41;98055.56;5003266;28;20033;-79
2022/08/26 00:30:56;;;;;;;4.63;1.77;;;;;;;33.82;29.67;98056.63;5006821;28;20168;-79
2022/08/26 00:33:22;;;;;;;5.63;1.73;;;;;;;33.76;30.14;98055.00;5002505;28;20033;-79
2022/08/26 00:35:49;;;;;;;2.85;1.92;;;;;;;33.84;29.79;98059.75;5001291;28;20057;-79
2022/08/26 00:38:15;;;;;;;5.35;2.42;;;;;;;33.92;29.13;98055.19;5003031;28;20421;-79
2022/08/26 00:40:48;;;;;;;7.75;1.95;;;;;;;34.12;28.82;98065.78;5006540;28;20497;-79
2022/08/26 00:43:15;;;;;;;6.75;2.10;;;;;;;34.10;28.97;98064.72;5002406;28;20041;-79
2022/08/26 00:45:49;;;;;;;5.22;2.10;;;;;;;34.10;28.74;98056.91;5007106;28;20502;-79
2022/08/26 00:48:20;;;;;;;5.38;2.15;;;;;;;34.27;27.98;98063.56;5008034;28;20092;-79
2022/08/26 00:51:01;;;;;;;2.30;1.60;;;;;;;33.91;27.84;98061.38;5008363;28;20106;-79
2022/08/26 00:53:28;;;;;;;;;;;;;;;33.47;28.64;98058.75;5006588;28;20042;-79
2022/08/26 00:56:02;;;;;;;2.05;1.42;;;;;;;33.41;28.67;98060.78;5009737;28;20746;-79
2022/08/26 00:58:31;;;;;;;2.78;1.38;;;;;;;33.28;28.45;98066.81;5011656;28;20444;-79
2022/08/26 01:00:57;;;;;;;2.28;1.40;;;;;;;33.10;28.73;98050.03;5011893;28;20050;-79
2022/08/26 01:03:25;;;;;;;4.90;1.58;;;;;;;32.83;29.27;98060.97;5011404;28;20038;-79
2022/08/26 01:05:55;;;;;;;1.75;1.40;;;;;;;32.19;31.05;98058.88;5008087;28;20493;-79
2022/08/26 01:08:23;;;;;;;1.85;1.25;;;;;;;31.77;31.79;98069.69;5005358;28;20038;-79
2022/08/26 01:10:49;;;;;;;2.65;1.58;;;;;;;32.18;31.08;98057.34;5003606;28;20084;-79
2022/08/26 01:13:16;;;;;;;8.63;2.70;;;;;;;32.32;31.23;98073.59;5006687;28;20052;-79
2022/08/26 01:15:52;;;;;;;5.22;1.42;;;;;;;32.73;30.26;98063.94;5003580;28;20038;-79
2022/08/26 01:18:19;;;;;;;3.17;1.98;;;;;;;33.07;30.11;98068.06;5001911;28;20480;-79
2022/08/26 01:21:14;;;;;;;4.90;1.38;;;;;;;32.94;29.07;98066.81;5007063;28;20095;-79
2022/08/26 01:23:48;;;;;;;3.47;1.85;;;;;;;32.69;29.59;98074.75;4998556;28;20034;-79
2022/08/26 01:26:21;;;;;;;1.70;1.30;;;;;;;32.75;29.46;98069.13;4998547;28;20105;-79
2022/08/26 01:28:52;;;;;;;4.05;1.70;;;;;;;32.97;29.30;98069.47;4999240;28;20041;-79
2022/08/26 01:31:22;;;;;;;4.82;1.75;;;;;;;32.65;30.26;98056.31;4997895;28;20041;-79
2022/08/26 01:34:18;;;;;;;2.97;2.00;;;;;;;31.70;31.45;98061.56;5008788;28;20030;-79
2022/08/26 01:36:46;;;;;;;5.43;2.25;;;;;;;32.19;31.14;98056.03;5004746;28;20297;-79
2022/08/26 01:39:12;;;;;;;5.63;2.33;;;;;;;32.46;30.98;98058.59;5000715;28;20030;-79
2022/08/26 01:41:39;;;;;;;2.83;1.73;;;;;;;32.45;30.91;98061.91;5001273;28;20033;-79
2022/08/26 01:44:08;;;;;;;3.03;1.92;;;;;;;32.76;29.83;98050.81;5010999;28;20038;-79
2022/08/26 01:46:35;;;;;;;2.15;1.45;;;;;;;32.98;30.10;98053.94;5002329;28;20037;-79
2022/08/26 01:49:05;;;;;;;6.10;1.85;;;;;;;33.19;29.33;98058.41;5002137;28;20037;-79
2022/08/26 01:51:35;;;;;;;3.65;2.15;;;;;;;33.19;29.99;98058.41;4998101;28;20509;-79
2022/08/26 01:54:03;;;;;;;3.85;1.80;;;;;;;33.25;29.16;98062.13;5004535;28;20129;-79
2022/08/26 01:56:29;;;;;;;6.28;1.95;;;;;;;33.37;29.40;98055.28;5000598;28;20038;-79
2022/08/26 01:58:59;;;;;;;4.40;2.47;;;;;;;33.50;28.85;98060.63;5016870;28;20038;-79
2022/08/26 02:01:26;;;;;;;2.97;2.20;;;;;;;33.66;28.04;98059.28;5002414;28;20781;-79
2022/08/26 02:04:11;;;;;;;3.35;2.08;;;;;;;33.64;27.73;98059.00;5001675;28;20033;-79
2022/08/26 02:06:38;;;;;;;3.67;1.83;;;;;;;33.50;27.52;98049.22;5016047;28;20034;-79
2022/08/26 02:09:06;;;;;;;1.60;1.50;;;;;;;33.66;27.40;98054.38;5002080;28;20036;-79
2022/08/26 02:11:32;;;;;;;4.15;1.65;;;;;;;33.79;26.94;98060.50;5001515;28;20440;-79
2022/08/26 02:14:04;;;;;;;4.97;1.80;;;;;;;33.79;26.55;98049.09;5002440;28;20025;-79
2022/08/26 02:16:36;;;;;;;12.88;1.67;;;;;;;33.27;26.92;98062.41;5000613;28;20030;-79
2022/08/26 02:19:04;;;;;;;2.05;1.50;;;;;;;32.96;27.68;98055.72;5008432;28;20037;-79
2022/08/26 02:21:31;;;;;;;4.97;1.70;;;;;;;33.02;28.08;98053.78;4997972;28;20511;-79
2022/08/26 02:24:12;;;;;;;3.40;1.80;;;;;;;32.77;28.17;98049.50;5006242;28;20030;-79
2022/08/26 02:26:39;;;;;;;3.38;1.58;;;;;;;33.08;27.83;98051.78;4998444;28;20030;-79
2022/08/26 02:29:10;;;;;;;3.63;1.65;;;;;;;32.80;27.58;98047.75;5002192;28;20030;-78
2022/08/26 02:31:36;;;;;;;4.13;1.65;;;;;;;32.56;27.76;98051.53;5000953;28;20117;-78
2022/08/26 02:34:18;;;;;;;1.80;1.48;;;;;;;32.43;28.40;98055.94;5000552;28;20057;-79
2022/08/26 02:36:44;;;;;;;1.20;1.10;;;;;;;32.56;28.36;98048.69;5001419;28;20113;-79
2022/08/26 02:39:10;;;;;;;1.42;1.10;;;;;;;32.38;28.07;98043.19;5006181;28;20034;-79
2022/08/26 02:41:37;;;;;;;1.67;1.00;;;;;;;32.69;28.49;98045.53;5001993;28;20038;-79
2022/08/26 02:44:06;;;;;;;1.08;1.08;;;;;;;32.72;28.43;98048.16;5021288;28;20393;-78
2022/08/26 02:46:32;;;;;;;3.00;2.03;;;;;;;32.70;28.14;98044.22;5017072;28;20586;-79
2022/08/26 02:48:58;;;;;;;3.60;1.30;;;;;;;32.41;28.54;98047.13;4997483;28;20490;-79
2022/08/26 02:51:24;;;;;;;1.92;1.20;;;;;;;32.69;28.36;98040.63;5000023;28;20038;-79
2022/08/26 02:53:50;;;;;;;4.85;1.70;;;;;;;32.79;28.06;98040.50;4996212;28;20057;-79
2022/08/26 02:56:16;;;;;;;2.65;1.23;;;;;;;32.68;28.44;98043.94;4999519;28;20056;-78
2022/08/26 02:58:42;;;;;;;2.40;1.35;;;;;;;32.74;28.32;98036.28;5003590;28;20038;-79
2022/08/26 03:01:26;;;;;;;4.60;2.42;;;;;;;32.88;27.95;98041.16;5003477;28;20110;-79
2022/08/26 03:03:53;;;;;;;3.10;1.65;;;;;;;33.06;27.74;98037.28;4999508;28;20494;-79
2022/08/26 03:06:19;;;;;;;3.60;1.70;;;;;;;32.94;27.74;98038.38;4997679;28;20109;-79
2022/08/26 03:08:45;;;;;;;4.20;1.85;;;;;;;33.02;27.73;98036.72;4998177;28;20021;-78
2022/08/26 03:11:12;;;;;;;1.67;1.25;;;;;;;33.05;27.23;98042.19;4998221;28;20064;-78
2022/08/26 03:13:39;;;;;;;1.80;1.50;;;;;;;33.09;27.56;98045.63;5000839;28;20099;-79
2022/08/26 03:16:06;;;;;;;3.80;1.40;;;;;;;33.10;27.15;98041.47;5005092;28;20433;-78
2022/08/26 03:18:33;;;;;;;2.42;1.48;;;;;;;32.94;27.44;98038.38;4998034;28;20068;-79
2022/08/26 03:21:15;;;;;;;1.45;1.30;;;;;;;32.97;27.70;98026.00;4998008;28;20100;-79
2022/08/26 03:23:42;;;;;;;2.28;1.60;;;;;;;33.09;27.96;98036.31;4995770;28;20045;-79
2022/08/26 03:26:11;;;;;;;3.67;1.60;;;;;;;32.94;27.84;98027.78;4998042;28;20093;-79
2022/08/26 03:30:38;;;;;;;2.13;1.25;;;;;;;32.73;27.69;98026.19;4997570;28;20140;-79
2022/08/26 03:31:27;;;;;;;1.27;1.10;;;;;;;32.89;27.62;98027.69;4996029;28;20080;-79
2022/08/26 03:33:53;;;;;;;3.22;1.27;;;;;;;32.96;27.67;98018.75;4999514;28;20038;-79
2022/08/26 03:36:21;;;;;;;5.68;1.48;;;;;;;32.86;28.30;98023.03;4996636;28;20437;-79
2022/08/26 03:38:47;;;;;;;1.98;1.48;;;;;;;32.77;28.06;98023.16;4997552;28;20470;-79
2022/08/26 03:41:13;;;;;;;3.97;1.60;;;;;;;32.65;28.04;98025.03;5000059;28;20124;-79
2022/08/26 03:43:39;;;;;;;2.80;1.65;;;;;;;32.75;28.21;98021.56;5007543;28;20038;-79
2022/08/26 03:46:07;;;;;;;4.43;2.53;;;;;;;32.94;28.64;98027.00;5002438;28;20057;-79
2022/08/26 03:48:33;;;;;;;3.30;2.05;;;;;;;33.10;28.25;98026.47;5000313;28;20490;-79
2022/08/26 03:51:01;;;;;;;2.40;1.35;;;;;;;33.19;27.50;98032.00;4998591;28;20052;-79
2022/08/26 03:53:27;;;;;;;2.22;1.58;;;;;;;33.26;27.27;98031.59;4996581;28;20100;-78
2022/08/26 03:55:53;;;;;;;2.35;1.83;;;;;;;33.31;27.88;98033.72;4997953;28;20465;-79
2022/08/26 03:58:20;;;;;;;2.38;1.58;;;;;;;33.28;28.05;98029.81;5005158;28;20117;-79
2022/08/26 04:00:46;;;;;;;4.50;1.45;;;;;;;33.31;27.05;98036.56;4997597;28;20039;-79
2022/08/26 04:03:56;;;;;;;1.70;1.10;;;;;;;33.11;27.04;98036.56;5000476;28;20045;-79
2022/08/26 04:05:58;;;;;;;1.58;1.20;;;;;;;33.33;26.33;98029.09;5002691;28;20042;-79
2022/08/26 04:08:24;;;;;;;3.63;2.17;;;;;;;33.51;26.38;98035.78;5002356;28;20040;-78
2022/08/26 04:10:50;;;;;;;3.75;1.38;;;;;;;33.61;26.35;98037.22;5001941;28;20038;-79
2022/08/26 04:13:17;;;;;;;1.85;1.30;;;;;;;33.64;25.53;98041.91;5007490;28;20478;-81
2022/08/26 04:15:43;;;;;;;1.73;1.20;;;;;;;33.35;26.09;98040.75;5005001;28;20977;-80
2022/08/26 04:18:09;;;;;;;1.40;1.30;;;;;;;33.20;26.81;98037.22;5016487;28;20038;-80
2022/08/26 04:20:35;;;;;;;1.88;1.40;;;;;;;33.23;26.78;98030.53;5003658;28;20103;-80
2022/08/26 04:23:01;;;;;;;2.70;1.17;;;;;;;33.17;27.45;98034.56;5010136;28;20128;-80
2022/08/26 04:25:27;;;;;;;1.65;1.48;;;;;;;33.54;26.83;98032.72;5009429;28;20034;-82
2022/08/26 04:27:54;;;;;;;2.03;1.60;;;;;;;34.00;26.21;98019.22;5023133;28;20037;-82
2022/08/26 04:30:20;;;;;;;1.33;1.17;;;;;;;34.36;26.09;98029.19;5003546;28;20379;-80
2022/08/26 04:32:47;;;;;;;1.70;1.25;;;;;;;34.43;25.96;98028.72;5000956;28;20037;-81
2022/08/26 04:35:31;;;;;;;1.52;1.30;;;;;;;34.01;26.68;98029.34;4996443;28;20030;-81
2022/08/26 04:37:57;;;;;;;1.92;1.13;;;;;;;33.80;26.78;98027.84;4996415;28;20511;-81
2022/08/26 04:40:26;;;;;;;2.75;1.30;;;;;;;33.80;27.31;98029.91;4999497;28;20526;-81
2022/08/26 04:42:56;;;;;;;3.88;1.35;;;;;;;33.79;27.98;98019.81;4999113;28;20486;-82
2022/08/26 04:45:25;;;;;;;1.58;1.10;;;;;;;33.62;27.61;98024.53;5000601;28;20039;-83
2022/08/26 04:47:55;;;;;;;1.88;1.33;;;;;;;33.69;28.35;98021.25;5004593;28;20034;-82
2022/08/26 04:50:22;;;;;;;5.57;1.65;;;;;;;33.61;28.97;98026.59;5005002;28;20050;-82
2022/08/26 04:52:48;;;;;;;1.75;1.30;;;;;;;33.72;28.74;98017.41;5001237;28;20035;-81
2022/08/26 04:55:15;;;;;;;2.60;1.60;;;;;;;33.92;28.53;98026.69;5016546;28;20034;-81
2022/08/26 04:57:41;;;;;;;3.17;1.83;;;;;;;33.79;29.14;98031.22;5005282;28;20038;-81
2022/08/26 05:01:04;;;;;;;2.97;1.67;;;;;;;33.28;30.25;98029.06;5007834;28;20026;-83
2022/08/26 05:03:54;;;;;;;7.43;1.85;;;;;;;33.42;30.15;98028.94;4997845;28;20042;-83
2022/08/26 05:06:20;;;;;;;1.95;1.55;;;;;;;32.78;30.50;98028.34;5023794;28;20050;-84
2022/08/26 05:08:50;;;;;;;1.95;1.67;;;;;;;32.13;32.44;98032.44;5022675;28;20054;-85
2022/08/26 05:11:28;;;;;;;5.15;1.38;;;;;;;32.26;32.66;98032.13;5022204;28;20057;-83
2022/08/26 05:13:57;;;;;;;3.55;1.45;;;;;;;33.01;30.34;98030.25;5007097;28;20049;-82
2022/08/26 05:16:36;;;;;;;1.55;1.33;;;;;;;34.07;29.57;98027.38;5014382;28;20041;-82
2022/08/26 05:19:12;;;;;;;4.15;1.55;;;;;;;35.09;28.99;98024.78;5007277;28;20411;-82
2022/08/26 05:21:44;;;;;;;2.58;1.35;;;;;;;35.75;27.62;98021.44;5005530;28;20124;-82
2022/08/26 05:25:00;;;;;;;6.15;1.80;;;;;;;36.27;27.55;98025.41;5007791;28;20231;-82
2022/08/26 05:27:29;;;;;;;4.38;1.60;;;;;;;36.65;26.68;98026.72;5008460;28;20057;-82
2022/08/26 05:29:57;;;;;;;3.03;1.38;;;;;;;36.56;26.64;98021.28;5026231;28;20342;-82
2022/08/26 05:32:23;;;;;;;4.78;1.92;;;;;;;35.54;28.52;98025.78;5012041;28;20045;-82
2022/08/26 05:34:55;;;;;;;2.80;1.73;;;;;;;35.01;29.23;98026.56;5007416;28;20030;-81
2022/08/26 05:37:25;;;;;;;4.30;1.65;;;;;;;34.82;29.80;98033.94;5003361;28;20120;-82
2022/08/26 05:39:51;;;;;;;3.13;2.15;;;;;;;34.45;29.64;98028.97;5006273;28;20405;-81
2022/08/26 05:42:18;;;;;;;3.15;2.00;;;;;;;34.77;29.61;98029.78;5009345;28;20038;-80
2022/08/26 05:44:44;;;;;;;2.30;2.10;;;;;;;34.57;30.01;98024.19;5016902;28;20393;-81
2022/08/26 05:47:10;;;;;;;3.72;2.05;;;;;;;34.56;30.36;98023.41;5010580;28;20504;-80
2022/08/26 05:49:40;;;;;;;2.00;1.75;;;;;;;34.53;30.49;98020.78;5005099;28;20509;-81
2022/08/26 05:52:07;;;;;;;2.83;2.45;;;;;;;34.86;30.33;98021.00;5000804;28;20033;-80
2022/08/26 05:54:33;;;;;;;2.63;1.67;;;;;;;35.39;29.50;98017.41;5009425;28;20032;-80
2022/08/26 05:56:59;;;;;;;3.72;2.25;;;;;;;35.63;29.14;98014.91;5007247;28;20044;-81
2022/08/26 05:59:26;;;;;;;3.88;1.92;;;;;;;35.96;28.28;98017.84;5004908;28;20172;-81
2022/08/26 06:01:53;;;;;;;4.05;2.47;;;;;;;35.83;29.30;98016.75;5002926;28;20058;-80
2022/08/26 06:04:19;;;;;;;5.10;2.47;;;;;;;35.29;29.19;98010.34;4999100;28;20034;-82
2022/08/26 06:06:46;;;;;;;3.95;2.40;;;;;;;35.44;29.09;98013.78;5002954;28;20023;-82
2022/08/26 06:09:12;;;;;;;3.72;2.50;;;;;;;34.94;30.23;98015.63;5000371;28;20483;-83
2022/08/26 06:11:39;;;;;;;3.33;2.25;;;;;;;35.15;29.69;98019.91;4997306;28;20104;-82
2022/08/26 06:14:06;;;;;;;3.72;2.58;;;;;;;35.33;29.56;98017.38;5006795;28;20033;-81
2022/08/26 06:16:37;;;;;;;5.32;2.90;;;;;;;35.71;28.73;98015.97;5005619;28;20033;-83
2022/08/26 06:19:04;;;;;;;;;;;;;;;34.90;29.34;98017.91;5009177;28;20046;-82
2022/08/26 06:21:33;;;;;;;2.95;2.00;;;;;;;35.48;29.08;98011.44;5000277;28;19958;-83
2022/08/26 06:26:52;;;;;;;3.95;2.72;;;;;;;36.04;28.61;98016.06;5012861;28;20041;-82
2022/08/26 06:29:19;;;;;;;3.50;2.50;;;;;;;35.66;29.31;98013.88;5014082;28;20086;-81
2022/08/26 06:31:46;;;;;;;3.67;2.42;;;;;;;35.31;30.02;98022.81;5017052;28;20052;-82
2022/08/26 06:34:12;;;;;;;3.78;2.13;;;;;;;35.29;28.55;98019.69;5009627;28;20041;-82
2022/08/26 06:36:41;;;;;;;3.78;2.55;;;;;;;35.80;29.41;98018.56;5010506;28;20030;-82
2022/08/26 06:39:14;;;;;;;2.28;2.08;;;;;;;35.43;30.29;98017.91;5007386;28;20030;-82
2022/08/26 06:41:42;;;;;;;3.80;2.40;;;;;;;36.04;29.20;98010.34;5004337;28;20052;-82
2022/08/26 06:44:08;;;;;;;5.53;2.53;;;;;;;35.95;29.14;98019.13;5005007;28;20034;-82
2022/08/26 06:46:36;;;;;;;5.90;2.17;;;;;;;35.35;29.97;98016.88;5001638;28;20026;-83
2022/08/26 06:49:03;;;;;;;4.13;2.47;;;;;;;35.42;29.40;98013.53;5002639;28;20041;-82
2022/08/26 06:51:33;;;;;;;5.85;2.90;;;;;;;36.03;29.08;98025.94;5006821;28;20045;-82
2022/08/26 06:54:00;;;;;;;5.68;2.20;;;;;;;36.12;27.85;98021.25;4998213;28;20042;-82
2022/08/26 06:56:32;;;;;;;5.60;2.60;;;;;;;35.39;29.87;98025.97;4999592;28;20030;-83
2022/08/26 06:58:58;;;;;;;4.75;2.20;;;;;;;35.29;29.94;98024.63;5004467;28;20474;-84
2022/08/26 07:01:30;;;;;;;2.70;2.50;;;;;;;34.86;32.51;98026.72;5001030;28;20027;-83
2022/08/26 07:03:59;;;;;;;6.18;1.92;;;;;;;35.59;29.79;98025.03;5004624;28;20076;-83
2022/08/26 07:06:27;;;;;;;3.33;2.22;;;;;;;36.21;28.54;98023.84;5004167;28;20606;-84
2022/08/26 07:09:03;;;;;;;3.35;2.10;;;;;;;35.60;29.88;98021.66;5005387;28;20030;-83
2022/08/26 07:11:29;;;;;;;3.05;2.25;;;;;;;35.63;29.92;98017.00;5006923;28;20053;-83
2022/08/26 07:13:57;;;;;;;3.47;2.70;;;;;;;35.70;30.47;98011.56;5007601;28;20066;-83
2022/08/26 07:16:24;;;;;;;7.13;2.90;;;;;;;35.41;30.05;98009.88;5008581;28;20939;-83
2022/08/26 07:18:52;;;;;;;4.00;2.33;;;;;;;35.68;28.55;98016.22;4998440;28;20482;-83
2022/08/26 07:21:20;;;;;;;2.53;2.05;;;;;;;35.74;29.82;98014.94;5001544;28;20129;-81
2022/08/26 07:23:47;;;;;;;6.50;2.90;;;;;;;34.96;31.28;98007.31;5008921;28;20407;-83
2022/08/26 07:26:18;;;;;;;4.53;2.53;;;;;;;35.71;30.18;98003.78;5005049;28;20062;-81
2022/08/26 07:28:47;;;;;;;2.55;1.90;;;;;;;36.39;28.46;98009.81;5007659;28;20041;-81
2022/08/26 07:31:16;;;;;;;4.30;2.00;;;;;;;35.58;29.71;98006.31;5009816;28;20128;-81
2022/08/26 07:33:55;;;;;;;4.35;2.30;;;;;;;35.28;30.74;98006.72;5025564;28;20057;-81
2022/08/26 07:36:23;;;;;;;6.10;2.30;;;;;;;35.57;29.69;97999.06;5009975;28;20064;-81
2022/08/26 07:38:50;;;;;;;2.58;2.10;;;;;;;36.15;29.57;98001.00;5015879;28;20061;-80
2022/08/26 07:41:21;;;;;;;2.72;2.05;;;;;;;35.25;31.40;97999.19;5014001;28;20064;-81
2022/08/26 07:43:47;;;;;;;6.50;2.42;;;;;;;36.03;30.15;97999.44;5015266;28;20571;-82
2022/08/26 07:46:17;;;;;;;2.25;2.00;;;;;;;35.57;29.13;97993.34;5007199;28;20045;-81
2022/08/26 07:48:44;;;;;;;4.00;2.60;;;;;;;34.93;31.62;97992.00;5011914;28;20522;-81
2022/08/26 07:51:10;;;;;;;2.45;2.25;;;;;;;36.14;28.72;97998.66;5012348;28;20046;-81
2022/08/26 07:53:36;;;;;;;3.47;2.38;;;;;;;36.41;28.27;97990.06;5011510;28;20041;-81
2022/08/26 07:56:03;;;;;;;7.95;3.30;;;;;;;34.71;33.43;98003.28;5011248;28;20034;-81
2022/08/26 07:58:30;;;;;;;2.90;2.60;;;;;;;34.97;32.57;97991.75;5007042;28;20038;-81
2022/08/26 08:00:56;;;;;;;4.13;2.35;;;;;;;35.98;30.38;97986.69;5004414;28;20038;-83
2022/08/26 08:03:22;;;;;;;7.20;2.20;;;;;;;36.02;29.47;97995.00;5005381;28;20173;-81
2022/08/26 08:05:48;;;;;;;6.22;2.80;;;;;;;35.34;31.57;97998.16;5001688;28;20080;-81
2022/08/26 08:08:15;;;;;;;4.10;3.00;;;;;;;35.20;32.58;97993.44;5009599;28;20034;-81
2022/08/26 08:10:43;;;;;;;3.45;2.05;;;;;;;35.35;30.64;97996.88;5010945;28;20052;-81
2022/08/26 08:13:09;;;;;;;8.90;2.30;;;;;;;36.34;29.27;97984.84;5012394;28;20057;-80
2022/08/26 08:15:36;;;;;;;3.58;2.83;;;;;;;36.00;29.33;97986.94;5011815;28;20048;-79
2022/08/26 08:18:03;;;;;;;4.50;2.40;;;;;;;34.58;32.99;98000.09;5010457;28;20543;-80
2022/08/26 08:20:30;;;;;;;5.70;2.80;;;;;;;35.63;30.22;97988.41;5011836;28;20521;-83
2022/08/26 08:22:56;;;;;;;5.40;2.47;;;;;;;36.26;28.65;97980.19;5007720;28;20068;-80
2022/08/26 08:25:23;;;;;;;4.78;2.22;;;;;;;36.54;28.59;97983.84;5010231;28;20037;-80
2022/08/26 08:27:49;;;;;;;2.88;1.95;;;;;;;36.93;28.01;97986.63;5009721;28;20154;-80
2022/08/26 08:30:18;;;;;;;2.42;1.70;;;;;;;36.86;27.66;97982.19;5009752;28;20096;-80
2022/08/26 08:32:44;;;;;;;4.78;2.00;;;;;;;37.38;25.48;97982.31;5007652;28;20390;-81
2022/08/26 08:35:13;;;;;;;5.15;1.83;;;;;;;37.24;26.92;97981.31;5009692;28;20152;-80
2022/08/26 08:37:40;;;;;;;1.80;1.70;;;;;;;37.94;25.52;97974.97;5007650;28;20124;-81
2022/08/26 08:40:08;;;;;;;3.10;1.83;;;;;;;37.13;27.93;97974.88;5009982;28;20041;-81
2022/08/26 08:42:44;;;;;;;3.33;2.30;;;;;;;37.72;26.39;97980.81;5007536;28;20033;-80
2022/08/26 08:45:24;;;;;;;2.30;1.42;;;;;;;37.00;27.56;97971.78;5009772;28;20088;-81
2022/08/26 08:47:58;;;;;;;2.03;1.75;;;;;;;36.58;27.18;97975.75;5009657;28;20033;-81
2022/08/26 08:50:45;;;;;;;3.55;1.73;;;;;;;36.69;28.46;97981.44;5009564;28;20128;-81
2022/08/26 08:53:30;;;;;;;7.95;2.25;;;;;;;35.57;26.26;97974.13;5009971;28;20075;-82
2022/08/26 08:56:24;;;;;;;4.55;2.55;;;;;;;33.90;27.71;97975.13;5010370;28;20038;-81
2022/08/26 08:58:57;;;;;;;3.92;2.10;;;;;;;34.92;30.80;97966.81;5009101;28;20089;-81
2022/08/26 09:01:46;;;;;;;5.35;2.58;;;;;;;34.34;28.02;97980.44;5010521;28;20036;-81
2022/08/26 09:05:10;;;;;;;7.25;2.47;;;;;;;34.79;26.35;97970.13;5009484;28;20036;-81
2022/08/26 09:07:43;;;;;;;5.65;2.50;;;;;;;34.49;32.46;97969.66;4979699;28;20049;-81
2022/08/26 09:10:27;;;;;;;3.10;2.47;;;;;;;35.92;30.29;97970.78;5004749;28;20041;-82
2022/08/26 09:12:53;;;;;;;5.32;2.10;;;;;;;36.81;26.05;97967.94;5003287;28;20115;-81
2022/08/26 09:15:29;;;;;;;2.65;1.73;;;;;;;37.72;25.20;97966.47;5005591;28;20034;-82
2022/08/26 09:18:41;;;;;;;2.45;1.65;;;;;;;36.25;26.30;97967.19;5002450;28;20027;-82
2022/08/26 09:21:10;;;;;;;2.88;2.08;;;;;;;35.64;29.40;97961.44;4979588;28;20084;-82
2022/08/26 09:23:39;;;;;;;2.97;2.10;;;;;;;35.51;30.26;97961.13;5004164;28;20242;-81
2022/08/26 09:26:18;;;;;;;2.42;1.83;;;;;;;36.38;27.65;97958.88;5002678;28;20030;-82
2022/08/26 09:28:56;;;;;;;5.13;2.15;;;;;;;35.82;28.25;97952.34;5009813;28;20084;-82
2022/08/26 09:31:28;;;;;;;2.60;2.20;;;;;;;35.38;29.23;97945.22;5014676;28;20056;-82
2022/08/26 09:34:16;;;;;;;4.10;2.22;;;;;;;36.38;27.61;97953.16;5008926;28;20061;-82
2022/08/26 09:36:54;;;;;;;2.45;1.48;;;;;;;36.86;28.83;97945.00;5012874;28;20030;-82
2022/08/26 09:39:24;;;;;;;4.05;1.98;;;;;;;36.75;26.44;97945.03;5012297;28;20045;-82
2022/08/26 09:42:02;;;;;;;2.75;1.80;;;;;;;36.89;25.59;97941.09;5011422;28;20108;-82
2022/08/26 09:44:30;;;;;;;5.22;2.38;;;;;;;35.12;31.01;97946.69;5007346;28;20031;-82
2022/08/26 09:47:02;;;;;;;7.25;2.10;;;;;;;36.04;30.67;97946.66;5014039;28;20053;-83
2022/08/26 09:49:35;;;;;;;7.78;2.70;;;;;;;35.06;29.41;97943.03;5013908;28;20042;-81
2022/08/26 09:52:20;;;;;;;4.78;2.30;;;;;;;35.37;28.98;97943.66;5013395;28;20030;-81
2022/08/26 09:55:18;;;;;;;3.42;2.45;;;;;;;36.23;27.21;97939.13;5011209;28;20030;-81
2022/08/26 09:57:53;;;;;;;2.70;2.20;;;;;;;37.56;27.08;97935.06;4997519;28;20486;-81
2022/08/26 10:00:29;;;;;;;5.18;2.60;;;;;;;37.20;26.32;97934.22;5025255;28;20057;-81
2022/08/26 10:02:59;;;;;;;2.50;2.30;;;;;;;38.27;26.31;97925.19;5000625;28;20042;-82
2022/08/26 10:05:39;;;;;;;3.63;2.80;;;;;;;37.61;27.39;97926.44;5007001;28;20032;-82
2022/08/26 10:08:33;;;;;;;4.60;3.20;;;;;;;35.61;27.91;97922.44;5009204;28;20037;-83
2022/08/26 10:11:03;;;;;;;7.82;3.08;;;;;;;34.82;30.44;97923.47;5004334;28;20038;-82
2022/08/26 10:13:42;;;;;;;11.20;3.38;;;;;;;34.13;30.42;97936.22;5005466;28;20109;-86
2022/08/26 10:16:18;;;;;;;6.47;3.50;;;;;;;34.92;31.41;97932.56;5003515;28;20568;-82
2022/08/26 10:19:07;;;;;;;7.25;3.30;;;;;;;35.93;27.97;97936.00;4998654;28;20425;-81
2022/08/26 10:21:44;;;;;;;3.58;2.80;;;;;;;37.11;30.03;97928.81;5002004;28;20085;-84
2022/08/26 10:24:49;;;;;;;2.90;2.22;;;;;;;37.94;24.87;97925.44;5001286;28;20048;-82
2022/08/26 10:27:42;;;;;;;3.03;2.38;;;;;;;36.07;28.00;97925.63;5004019;28;20052;-84
2022/08/26 10:30:47;;;;;;;3.88;2.72;;;;;;;37.00;26.48;97923.88;5009652;28;20030;-84
2022/08/26 10:33:24;;;;;;;3.08;2.70;;;;;;;37.05;29.17;97925.94;5021872;28;20065;-82
2022/08/26 10:36:00;;;;;;;4.65;2.47;;;;;;;36.05;27.00;97914.72;5010455;28;20038;-80
2022/08/26 10:38:36;;;;;;;5.40;2.92;;;;;;;34.99;30.30;97914.94;5014446;28;20033;-81
2022/08/26 10:41:16;;;;;;;2.60;2.40;;;;;;;35.90;27.94;97917.00;5013995;28;20033;-81
2022/08/26 10:44:01;;;;;;;3.80;2.60;;;;;;;34.95;26.76;97911.56;5013720;28;20031;-81
2022/08/26 10:46:43;;;;;;;4.22;2.35;;;;;;;36.46;30.71;97909.22;5010563;28;20390;-81
2022/08/26 10:49:13;;;;;;;5.05;2.25;;;;;;;37.06;29.01;97918.91;5014485;28;20044;-82
2022/08/26 10:51:45;;;;;;;2.40;2.20;;;;;;;37.62;28.22;97910.03;5011816;28;20492;-82
2022/08/26 10:54:25;;;;;;;5.95;2.28;;;;;;;36.49;27.03;97905.31;5009431;28;20044;-82
2022/08/26 10:57:00;;;;;;;2.45;2.10;;;;;;;37.55;26.58;97908.53;5006465;28;20033;-81
2022/08/26 10:59:49;;;;;;;3.97;2.28;;;;;;;37.40;25.10;97908.09;5008274;28;20578;-81
2022/08/26 11:02:35;;;;;;;3.25;2.45;;;;;;;37.29;27.59;97920.38;5012023;28;20054;-81
2022/08/26 11:05:05;;;;;;;2.10;1.90;;;;;;;38.10;27.58;97904.44;5011854;28;20045;-81
2022/08/26 11:07:47;;;;;;;4.00;2.15;;;;;;;38.40;25.43;97910.97;5010653;28;20120;-81
2022/08/26 11:10:18;;;;;;;5.22;2.00;;;;;;;38.20;26.94;97911.41;5003110;28;20045;-81
2022/08/26 11:12:47;;;;;;;4.00;2.40;;;;;;;36.80;29.95;97900.53;5012656;28;20482;-81
2022/08/26 11:15:25;;;;;;;7.25;2.72;;;;;;;36.14;27.69;97898.56;5014906;28;20034;-81
2022/08/26 11:17:51;;;;;;;2.50;2.10;;;;;;;36.33;30.89;97911.03;5009874;28;20186;-80
2022/08/26 11:20:39;;;;;;;3.30;2.15;;;;;;;35.86;27.25;97904.28;5004370;28;20132;-82
2022/08/26 11:23:19;;;;;;;3.13;2.27;;;;;;;35.93;29.34;97898.84;5021208;28;20050;-85
2022/08/26 11:26:06;;;;;;;5.18;2.08;;;;;;;36.57;24.77;97894.88;5004926;28;20026;-85
2022/08/26 11:28:37;;;;;;;4.93;2.25;;;;;;;37.30;27.60;97896.13;5006822;28;20084;-84
2022/08/26 11:31:29;;;;;;;6.78;2.03;;;;;;;37.54;24.98;97901.22;5006091;28;20045;-86
2022/08/26 11:34:00;;;;;;;3.70;1.90;;;;;;;38.01;28.70;97893.31;5005703;28;20042;-86
2022/08/26 11:36:46;;;;;;;7.10;2.15;;;;;;;36.42;25.61;97888.66;5004822;28;20425;-84
2022/08/26 11:39:45;;;;;;;7.32;1.70;;;;;;;35.51;24.94;97884.78;5007343;28;20038;-86
2022/08/26 11:42:38;;;;;;;3.22;1.80;;;;;;;35.93;26.58;97887.41;5004803;28;20029;-84
2022/08/26 11:45:24;;;;;;;5.63;1.92;;;;;;;37.51;25.16;97876.50;5001003;28;20041;-84
2022/08/26 11:47:50;;;;;;;2.92;2.00;;;;;;;37.91;28.61;97869.16;5005804;28;20509;-84
2022/08/26 11:50:25;;;;;;;4.25;1.92;;;;;;;37.37;27.06;97866.97;5002459;28;20022;-83
2022/08/26 11:53:03;;;;;;;1.63;1.52;;;;;;;38.05;25.34;97873.72;5002104;28;20410;-84
2022/08/26 11:55:43;;;;;;;3.70;1.70;;;;;;;38.12;23.46;97870.28;5002430;28;20482;-83
2022/08/26 11:58:19;;;;;;;3.00;1.73;;;;;;;38.69;27.93;97857.69;5002521;28;20034;-83
2022/08/26 12:00:58;;;;;;;8.13;2.00;;;;;;;37.35;27.20;97858.09;4998733;28;20026;-85